Карточка аэропорта URSS

Внимание!
Информация на этой странице в стадии наполнения.
Если вы не увидели какой-то информации, или заметили неточность - пожалуйста сообщите нам!
Спасибо!
Команда RU-STAFF
Название аэропортаСочи
Название аэропорта (англ.)Sochi
Превышение89 ft. (27.1 m.)
Координаты43°26.634', 39°56.55'
Высота перехода13000 ft
Эшелон переходаFL140 (QNH >= 1013); FL150 (QNH 977-1012); FL160 (QNH < 977)
Коды ответчика1060-1077
Зона ОрВДРостов-на-Дону РПИ (URRV)
Данные METARURSS 300600Z 04004MPS 9999 FEW011 22/14 Q1017 R02/010070 R06/010070 NOSIG RMK R06/08005MPS MT OBSC QFE761
Проноз погоды (TAF)URSS 300456Z 3006/0106 18004G09MPS 9999 NSC BECMG 3008/3009 23003G08MPS FEW040 BECMG 3011/3012 28004G09MPS BECMG 3015/3016 05004G09MPS NSC
NOTAMshow/hide NOTAM
AWOS   TABLE

Информация о ВПП

ВПП Длина ВПП (м.) Покрытие Курс ВПП Частота ILS
242890Цементобетон238 
202500Цементобетон202 
062890Цементобетон58111.1
022500Цементобетон22110.5

Диспетчерские позиции

Позывной Наименование органа УВД Частота
URSS_DELСочи-Деливери132.700
URSS_APPСочи-Подход124.600
URSS_TWRСочи-Старт121.200
URSS_R_APPСочи-Круг119.700
URSS_GNDСочи-Руление119.000
URSS_FM1119.000



Спутниковое изображение